Lake Mc Donald, Montana
Current Conditions -  °F | °C
As of 2:16 AM on Wednesday 28 Jan 2015 (Local Time) from KGPI Reporting Station
Moderate Fog Moderate Fog  
Wind Chill: 15°   Ceiling: 100
Heat Index: 15°   Visibility: 0.25mi
Dew Point: 13°   Wind: 0mph
Humidity: 91%   Direction: NA
Pressure: 30.07"   Gusts: NA
Location:  48.6192°N, 113.874°W
Report Text: KGPI 280916Z AUTO 00000KT 1/4SM FZFG VV001 M09/M11 A3007 RMK AO2 T10941106 $
Loading
Personal Weather Stations






























Interactive Weather Map New forecast layout! Learn more

10-Day Weather Forecast

Advertisements
Track Severe Weather on mobile